KLM75E EHAM-EGNM
Flight info
| Callsign | KLM75E |
|---|---|
| Flight time | N/A |
| Altitude | 32000 |
| Route | BERGI L60 OTBED Y70 GOLES |
| Aircraft | E190/M-SDE3GILORVW/S |
Departure
| Time | 2026-04-29 11:32 |
|---|---|
| Airport | Amsterdam Airport Schiphol (EHAM) |
Arrival
| Time | N/A |
|---|---|
| Airport | Leeds Bradford Airport (EGNM) |
| Time | Latitude | Longitude | Altitude | Speed | Heading |
|---|---|---|---|---|---|
| 2026-04-29 10:59 | 52.30362 | 4.76181 | -2 ft | 0 kts | 58° |
| 2026-04-29 11:15 | 52.30357 | 4.76169 | -2 ft | 5 kts | 56° |
| 2026-04-29 11:16 | 52.30346 | 4.76134 | -2 ft | 2 kts | 85° |
| 2026-04-29 11:16 | 52.30346 | 4.76121 | -3 ft | 2 kts | 120° |
| 2026-04-29 11:16 | 52.30349 | 4.76113 | -2 ft | 2 kts | 139° |
| 2026-04-29 11:16 | 52.30358 | 4.76102 | -2 ft | 2 kts | 147° |
| 2026-04-29 11:17 | 52.30367 | 4.76093 | -2 ft | 0 kts | 148° |
| 2026-04-29 11:19 | 52.30365 | 4.76094 | -2 ft | 0 kts | 148° |
| 2026-04-29 11:19 | 52.30364 | 4.76096 | -2 ft | 2 kts | 148° |
| 2026-04-29 11:19 | 52.30340 | 4.76119 | -2 ft | 6 kts | 150° |
| 2026-04-29 11:20 | 52.30290 | 4.76170 | -2 ft | 11 kts | 148° |
| 2026-04-29 11:20 | 52.30251 | 4.76210 | -2 ft | 13 kts | 148° |
| 2026-04-29 11:20 | 52.30202 | 4.76236 | -2 ft | 11 kts | 189° |
| 2026-04-29 11:21 | 52.30150 | 4.76143 | -2 ft | 15 kts | 238° |
| 2026-04-29 11:21 | 52.30083 | 4.75966 | -2 ft | 20 kts | 238° |
| 2026-04-29 11:21 | 52.30005 | 4.75764 | -2 ft | 22 kts | 237° |
| 2026-04-29 11:21 | 52.29918 | 4.75537 | -2 ft | 25 kts | 238° |
| 2026-04-29 11:22 | 52.29833 | 4.75300 | -2 ft | 16 kts | 257° |
| 2026-04-29 11:22 | 52.29869 | 4.75147 | -2 ft | 15 kts | 312° |
| 2026-04-29 11:22 | 52.29956 | 4.74987 | -2 ft | 26 kts | 310° |
| 2026-04-29 11:22 | 52.30090 | 4.74743 | 1 ft | 28 kts | 310° |
| 2026-04-29 11:23 | 52.30210 | 4.74516 | 9 ft | 27 kts | 311° |
| 2026-04-29 11:23 | 52.30315 | 4.74317 | 1 ft | 25 kts | 311° |
| 2026-04-29 11:23 | 52.30463 | 4.74198 | -2 ft | 24 kts | 4° |
| 2026-04-29 11:23 | 52.30633 | 4.74214 | -2 ft | 25 kts | 2° |
| 2026-04-29 11:24 | 52.30807 | 4.74231 | -2 ft | 25 kts | 2° |
| 2026-04-29 11:24 | 52.30987 | 4.74250 | -2 ft | 26 kts | 2° |
| 2026-04-29 11:24 | 52.31171 | 4.74264 | -2 ft | 27 kts | 3° |
| 2026-04-29 11:24 | 52.31360 | 4.74281 | -2 ft | 27 kts | 3° |
| 2026-04-29 11:25 | 52.31551 | 4.74301 | -2 ft | 28 kts | 3° |
| 2026-04-29 11:25 | 52.31739 | 4.74320 | -2 ft | 27 kts | 0° |
| 2026-04-29 11:25 | 52.31932 | 4.74335 | -2 ft | 28 kts | 4° |
| 2026-04-29 11:25 | 52.32032 | 4.74209 | -2 ft | 20 kts | 273° |
| 2026-04-29 11:26 | 52.32051 | 4.73654 | -2 ft | 29 kts | 273° |
| 2026-04-29 11:26 | 52.32097 | 4.73346 | -2 ft | 28 kts | 314° |
| 2026-04-29 11:26 | 52.32245 | 4.73137 | -2 ft | 29 kts | 320° |
| 2026-04-29 11:27 | 52.32408 | 4.72907 | -2 ft | 32 kts | 319° |
| 2026-04-29 11:27 | 52.32579 | 4.72667 | -2 ft | 33 kts | 319° |
| 2026-04-29 11:27 | 52.32742 | 4.72406 | -2 ft | 33 kts | 312° |
| 2026-04-29 11:27 | 52.32897 | 4.72118 | -2 ft | 34 kts | 311° |
| 2026-04-29 11:28 | 52.33057 | 4.71827 | -2 ft | 35 kts | 312° |
| 2026-04-29 11:28 | 52.33129 | 4.71503 | -2 ft | 30 kts | 236° |
| 2026-04-29 11:28 | 52.32976 | 4.71274 | -2 ft | 26 kts | 221° |
| 2026-04-29 11:28 | 52.32861 | 4.71061 | -3 ft | 23 kts | 264° |
| 2026-04-29 11:29 | 52.32911 | 4.70899 | -4 ft | 15 kts | 353° |
| 2026-04-29 11:29 | 52.32926 | 4.70899 | -4 ft | 0 kts | 2° |
| 2026-04-29 11:31 | 52.32939 | 4.70900 | -4 ft | 7 kts | 4° |
| 2026-04-29 11:31 | 52.33227 | 4.70927 | -5 ft | 80 kts | 4° |
| 2026-04-29 11:31 | 52.34020 | 4.71001 | 30 ft | 139 kts | 9° |
| 2026-04-29 11:32 | 52.35027 | 4.71051 | 790 ft | 151 kts | 8° |
| 2026-04-29 11:32 | 52.36151 | 4.71132 | 1607 ft | 166 kts | 9° |
| 2026-04-29 11:32 | 52.37378 | 4.71278 | 2561 ft | 186 kts | 11° |
| 2026-04-29 11:32 | 52.38771 | 4.71493 | 3225 ft | 215 kts | 12° |
| 2026-04-29 11:33 | 52.40341 | 4.71623 | 3687 ft | 242 kts | 7° |
| 2026-04-29 11:33 | 52.42091 | 4.71294 | 4319 ft | 267 kts | 347° |
| 2026-04-29 11:33 | 52.43800 | 4.70015 | 5280 ft | 273 kts | 335° |
| 2026-04-29 11:33 | 52.45329 | 4.68085 | 6169 ft | 282 kts | 319° |
| 2026-04-29 11:34 | 52.46758 | 4.65854 | 7015 ft | 286 kts | 320° |
| 2026-04-29 11:34 | 52.48186 | 4.63560 | 7807 ft | 289 kts | 318° |
| 2026-04-29 11:34 | 52.49627 | 4.61245 | 8576 ft | 291 kts | 321° |
| 2026-04-29 11:34 | 52.51189 | 4.59112 | 9353 ft | 293 kts | 325° |
| 2026-04-29 11:35 | 52.52822 | 4.57069 | 10129 ft | 297 kts | 326° |
| 2026-04-29 11:35 | 52.54573 | 4.55101 | 10504 ft | 313 kts | 332° |
| 2026-04-29 11:35 | 52.56485 | 4.53262 | 11063 ft | 321 kts | 333° |
| 2026-04-29 11:35 | 52.58427 | 4.51416 | 11768 ft | 324 kts | 333° |
| 2026-04-29 11:36 | 52.60395 | 4.49568 | 12469 ft | 328 kts | 333° |
| 2026-04-29 11:36 | 52.62382 | 4.47701 | 13176 ft | 331 kts | 333° |
| 2026-04-29 11:36 | 52.64361 | 4.45835 | 13884 ft | 335 kts | 334° |
| 2026-04-29 11:36 | 52.66418 | 4.43897 | 14564 ft | 338 kts | 334° |
| 2026-04-29 11:37 | 52.68472 | 4.41959 | 15230 ft | 341 kts | 334° |
| 2026-04-29 11:37 | 52.70510 | 4.40030 | 15887 ft | 344 kts | 333° |
| 2026-04-29 11:37 | 52.72497 | 4.37798 | 16512 ft | 352 kts | 318° |
| 2026-04-29 11:37 | 52.73974 | 4.34530 | 17174 ft | 359 kts | 303° |
| 2026-04-29 11:38 | 52.75163 | 4.30880 | 17833 ft | 363 kts | 298° |
| 2026-04-29 11:38 | 52.76249 | 4.27084 | 18501 ft | 367 kts | 297° |
| 2026-04-29 11:38 | 52.77297 | 4.23219 | 19111 ft | 371 kts | 296° |
| 2026-04-29 11:38 | 52.78226 | 4.19210 | 19679 ft | 376 kts | 291° |
| 2026-04-29 11:39 | 52.79075 | 4.15101 | 20266 ft | 380 kts | 291° |
| 2026-04-29 11:39 | 52.79918 | 4.10928 | 20848 ft | 384 kts | 290° |
| 2026-04-29 11:39 | 52.80764 | 4.06709 | 21394 ft | 388 kts | 290° |
| 2026-04-29 11:39 | 52.81615 | 4.02447 | 21918 ft | 392 kts | 290° |
| 2026-04-29 11:40 | 52.82465 | 3.98188 | 22422 ft | 396 kts | 290° |
| 2026-04-29 11:40 | 52.83329 | 3.93847 | 22908 ft | 400 kts | 290° |
| 2026-04-29 11:40 | 52.84203 | 3.89444 | 23384 ft | 404 kts | 290° |
| 2026-04-29 11:40 | 52.85081 | 3.85013 | 23885 ft | 407 kts | 290° |
| 2026-04-29 11:41 | 52.85967 | 3.80534 | 24326 ft | 411 kts | 290° |
| 2026-04-29 11:41 | 52.86857 | 3.76020 | 24767 ft | 414 kts | 290° |
| 2026-04-29 11:41 | 52.87752 | 3.71473 | 25223 ft | 417 kts | 290° |
| 2026-04-29 11:41 | 52.88656 | 3.66874 | 25668 ft | 421 kts | 290° |
| 2026-04-29 11:42 | 52.89561 | 3.62251 | 26080 ft | 424 kts | 290° |
| 2026-04-29 11:42 | 52.90472 | 3.57586 | 26480 ft | 427 kts | 290° |
| 2026-04-29 11:42 | 52.91387 | 3.52895 | 26854 ft | 430 kts | 290° |
| 2026-04-29 11:42 | 52.92307 | 3.48167 | 27226 ft | 432 kts | 290° |
| 2026-04-29 11:43 | 52.93229 | 3.43409 | 27583 ft | 435 kts | 290° |
| 2026-04-29 11:43 | 52.94157 | 3.38614 | 27934 ft | 438 kts | 290° |
| 2026-04-29 11:43 | 52.95088 | 3.33791 | 28280 ft | 441 kts | 290° |
| 2026-04-29 11:43 | 52.96024 | 3.28931 | 28636 ft | 443 kts | 290° |
| 2026-04-29 11:44 | 52.96961 | 3.24051 | 28990 ft | 446 kts | 290° |
| 2026-04-29 11:44 | 52.97905 | 3.19120 | 29346 ft | 449 kts | 290° |
| 2026-04-29 11:44 | 52.98854 | 3.14154 | 29688 ft | 452 kts | 290° |
| 2026-04-29 11:44 | 52.99483 | 3.10857 | 29865 ft | 455 kts | 290° |
| 2026-04-29 11:45 | 53.01412 | 3.00698 | 30367 ft | 463 kts | 290° |
| 2026-04-29 11:45 | 53.02692 | 2.93933 | 30875 ft | 463 kts | 290° |
| 2026-04-29 11:45 | 53.03653 | 2.88831 | 31244 ft | 462 kts | 290° |
| 2026-04-29 11:46 | 53.04301 | 2.85389 | 31495 ft | 462 kts | 290° |
| 2026-04-29 11:46 | 53.05258 | 2.80282 | 31861 ft | 461 kts | 290° |
| 2026-04-29 11:46 | 53.06212 | 2.75197 | 32215 ft | 461 kts | 290° |
| 2026-04-29 11:46 | 53.07131 | 2.70263 | 32317 ft | 441 kts | 290° |
| 2026-04-29 11:47 | 53.08961 | 2.60428 | 32407 ft | 452 kts | 290° |
| 2026-04-29 11:47 | 53.10716 | 2.50179 | 32428 ft | 469 kts | 285° |
| 2026-04-29 11:48 | 53.11760 | 2.39465 | 32414 ft | 467 kts | 280° |
| 2026-04-29 11:48 | 53.12638 | 2.28800 | 32426 ft | 468 kts | 279° |
| 2026-04-29 11:49 | 53.13506 | 2.18036 | 32417 ft | 468 kts | 279° |
| 2026-04-29 11:49 | 53.14365 | 2.07292 | 32425 ft | 468 kts | 279° |
| 2026-04-29 11:50 | 53.15213 | 1.96550 | 32424 ft | 468 kts | 279° |
| 2026-04-29 11:50 | 53.16055 | 1.85783 | 32422 ft | 468 kts | 279° |
| 2026-04-29 11:51 | 53.16885 | 1.75025 | 32427 ft | 468 kts | 278° |
| 2026-04-29 11:51 | 53.17706 | 1.64263 | 32427 ft | 468 kts | 278° |
| 2026-04-29 11:52 | 53.18512 | 1.53560 | 32427 ft | 468 kts | 278° |
| 2026-04-29 11:52 | 53.19315 | 1.42774 | 32429 ft | 468 kts | 278° |
| 2026-04-29 11:53 | 53.20106 | 1.31992 | 32428 ft | 468 kts | 278° |
| 2026-04-29 11:53 | 53.20889 | 1.21206 | 32428 ft | 468 kts | 278° |
| 2026-04-29 11:54 | 53.21662 | 1.10404 | 32425 ft | 468 kts | 278° |
| 2026-04-29 11:54 | 53.22420 | 0.99692 | 32430 ft | 468 kts | 277° |
| 2026-04-29 11:55 | 53.23172 | 0.88907 | 32421 ft | 468 kts | 277° |
| 2026-04-29 11:55 | 53.23916 | 0.78100 | 32428 ft | 467 kts | 277° |
| 2026-04-29 11:56 | 53.24648 | 0.67309 | 32428 ft | 468 kts | 277° |
| 2026-04-29 11:56 | 53.25372 | 0.56516 | 32426 ft | 467 kts | 277° |
| 2026-04-29 11:57 | 53.26085 | 0.45705 | 32436 ft | 467 kts | 277° |
| 2026-04-29 11:57 | 53.26788 | 0.34916 | 32433 ft | 467 kts | 276° |
| 2026-04-29 11:58 | 53.27478 | 0.24174 | 32431 ft | 467 kts | 276° |
| 2026-04-29 11:58 | 53.28161 | 0.13392 | 32417 ft | 467 kts | 276° |
| 2026-04-29 11:59 | 53.29304 | 0.02729 | 32418 ft | 466 kts | 288° |
| 2026-04-29 11:59 | 53.31848 | -0.07168 | 32420 ft | 463 kts | 297° |
| 2026-04-29 12:00 | 53.34660 | -0.16863 | 32425 ft | 463 kts | 297° |
| 2026-04-29 12:00 | 53.37481 | -0.26558 | 32447 ft | 463 kts | 297° |
| 2026-04-29 12:01 | 53.40280 | -0.36217 | 32452 ft | 463 kts | 297° |
| 2026-04-29 12:01 | 53.43091 | -0.45944 | 32450 ft | 464 kts | 297° |
| 2026-04-29 12:02 | 53.45901 | -0.55689 | 32451 ft | 464 kts | 297° |
| 2026-04-29 12:02 | 53.48691 | -0.65468 | 32443 ft | 464 kts | 297° |
| 2026-04-29 12:03 | 53.51473 | -0.75261 | 32445 ft | 464 kts | 297° |
| 2026-04-29 12:03 | 53.54237 | -0.85003 | 32437 ft | 464 kts | 297° |
| 2026-04-29 12:04 | 53.57024 | -0.94877 | 32433 ft | 465 kts | 297° |
| 2026-04-29 12:04 | 53.59819 | -1.04610 | 32436 ft | 464 kts | 300° |
| 2026-04-29 12:05 | 53.63284 | -1.13737 | 32432 ft | 461 kts | 309° |
| 2026-04-29 12:05 | 53.67144 | -1.22405 | 32430 ft | 461 kts | 309° |
| 2026-04-29 12:06 | 53.71020 | -1.31044 | 32430 ft | 461 kts | 309° |
| 2026-04-29 12:06 | 53.74867 | -1.39642 | 32431 ft | 462 kts | 309° |
| 2026-04-29 12:07 | 53.78738 | -1.48321 | 32428 ft | 462 kts | 309° |
| 2026-04-29 12:07 | 53.82601 | -1.57021 | 32430 ft | 462 kts | 309° |
| 2026-04-29 12:08 | 53.86456 | -1.65731 | 32430 ft | 462 kts | 309° |
| 2026-04-29 12:08 | 53.90284 | -1.74410 | 32427 ft | 462 kts | 309° |
| 2026-04-29 12:09 | 53.94128 | -1.83155 | 32427 ft | 462 kts | 309° |
| 2026-04-29 12:09 | 53.97971 | -1.91924 | 32426 ft | 462 kts | 309° |
| 2026-04-29 12:10 | 54.01804 | -2.00710 | 32428 ft | 463 kts | 309° |
| 2026-04-29 12:10 | 54.05632 | -2.09509 | 32419 ft | 462 kts | 309° |
| 2026-04-29 12:11 | 54.09449 | -2.18316 | 32402 ft | 462 kts | 309° |
| 2026-04-29 12:11 | 54.13261 | -2.27142 | 32412 ft | 462 kts | 309° |
| 2026-04-29 12:12 | 54.17050 | -2.35948 | 32415 ft | 464 kts | 309° |
| 2026-04-29 12:12 | 54.20855 | -2.44818 | 32401 ft | 463 kts | 309° |
| 2026-04-29 12:13 | 54.24647 | -2.53692 | 32399 ft | 462 kts | 308° |
| 2026-04-29 12:13 | 54.28429 | -2.62574 | 32411 ft | 461 kts | 308° |
| 2026-04-29 12:14 | 54.32196 | -2.71451 | 32409 ft | 461 kts | 308° |
| 2026-04-29 12:14 | 54.35952 | -2.80335 | 32407 ft | 460 kts | 308° |
| 2026-04-29 12:15 | 54.39678 | -2.89180 | 32414 ft | 460 kts | 308° |
| 2026-04-29 12:15 | 54.43418 | -2.98090 | 32413 ft | 460 kts | 308° |
| 2026-04-29 12:16 | 54.47148 | -3.07006 | 32403 ft | 459 kts | 308° |
| 2026-04-29 12:16 | 54.50871 | -3.15939 | 32393 ft | 458 kts | 308° |
| 2026-04-29 12:17 | 54.54590 | -3.24893 | 32411 ft | 460 kts | 307° |
| 2026-04-29 12:17 | 54.58263 | -3.33771 | 32410 ft | 458 kts | 307° |
| 2026-04-29 12:18 | 54.61955 | -3.42724 | 32420 ft | 458 kts | 307° |
| 2026-04-29 12:18 | 54.65642 | -3.51696 | 32417 ft | 457 kts | 307° |
| 2026-04-29 12:19 | 54.69304 | -3.60642 | 32425 ft | 458 kts | 307° |
| 2026-04-29 12:19 | 54.72978 | -3.69652 | 32427 ft | 458 kts | 307° |
| 2026-04-29 12:20 | 54.76647 | -3.78680 | 32426 ft | 458 kts | 307° |
| 2026-04-29 12:20 | 54.80304 | -3.87710 | 32423 ft | 459 kts | 307° |
| 2026-04-29 12:21 | 54.83971 | -3.96798 | 32420 ft | 459 kts | 307° |
| 2026-04-29 12:21 | 54.87602 | -4.05833 | 32426 ft | 459 kts | 307° |
| 2026-04-29 12:22 | 54.91247 | -4.14931 | 32415 ft | 458 kts | 307° |
| 2026-04-29 12:22 | 54.94882 | -4.24040 | 32427 ft | 459 kts | 307° |
| 2026-04-29 12:23 | 54.98511 | -4.33169 | 32430 ft | 458 kts | 306° |
| 2026-04-29 12:23 | 55.02127 | -4.42297 | 32422 ft | 458 kts | 306° |
| 2026-04-29 12:24 | 55.05711 | -4.51380 | 32418 ft | 457 kts | 306° |